Flight Track Log - Related Links

Times and Time Zones

All times are in EDT time to prevent confusion due to time zone crossing. See the N6728C flight status page for this flight to view local times or setup timezone preferences in your user account.

Time Position Orientation Groundspeed Altitude Reporting Facility
EDT Latitude Longitude Course Direction KTS MPH feet Rate Location/Type
Fri 04:35:23 PM 43.1072 -76.1406 256° West 112 129 900  Level Boston Center
Fri 04:36:05 PM 43.1022 -76.1686 256° West 117 135 1,400 619 Climbing Boston Center
Fri 04:37:00 PM 43.0925 -76.2078 251° West 120 138 1,900 466 Climbing Boston Center
Fri 04:38:01 PM 43.0808 -76.2469 248° West 122 140 2,300 446 Climbing Boston Center
Fri 04:39:01 PM 43.0647 -76.2942 245° Southwest 115 132 2,800 477 Climbing Boston Center
Fri 04:40:57 PM 43.0539 -76.3703 259° West 116 133 3,700 409 Climbing Boston Center
Fri 04:41:57 PM 43.0564 -76.4158 274° West 112 129 4,000 149 Climbing Boston Center
Fri 04:42:58 PM 43.0567 -76.4672 270° West 137 158 4,000  Level Boston Center
Fri 04:44:06 PM 43.0567 -76.5239 270° West 143 165 4,000  Level Boston Center
Fri 04:45:06 PM 43.0589 -76.5753 273° West 136 157 4,000  Level Boston Center
Fri 04:46:07 PM 43.0611 -76.6294 273° West 130 150 4,000 66 Level Boston Center
Fri 04:46:37 PM 43.0625 -76.6558 274° West 130 150 4,100 90 Climbing Cleveland Center
Fri 04:47:14 PM 43.0614 -76.6814 267° West 130 150 4,100  Level Cleveland Center
Fri 04:48:15 PM 43.0653 -76.7353 276° West 131 151 4,100  Level Cleveland Center
Fri 04:49:16 PM 43.0647 -76.7836 269° West 130 150 4,100  Level Cleveland Center
Fri 04:50:16 PM 43.0686 -76.8344 276° West 130 150 4,100  Level Cleveland Center
Fri 04:51:17 PM 43.0700 -76.8828 272° West 125 144 4,100  Level Cleveland Center
Fri 04:52:12 PM 43.0714 -76.9253 273° West 128 147 4,100  Level Cleveland Center
Fri 04:53:13 PM 43.0750 -76.9733 276° West 130 150 4,100  Level Cleveland Center
Fri 04:54:14 PM 43.0722 -77.0219 266° West 129 148 4,100  Level Cleveland Center
Fri 04:55:14 PM 43.0781 -77.0728 279° West 124 143 4,100  Level Cleveland Center
Fri 04:56:39 PM 43.0781 -77.1381 270° West 129 148 4,100  Level Cleveland Center
Fri 04:57:16 PM 43.0789 -77.1722 272° West 128 147 4,100  Level Cleveland Center
Fri 04:58:16 PM 43.0803 -77.2206 272° West 134 154 4,100  Level Cleveland Center
Fri 04:59:29 PM 43.0800 -77.2803 270° West 126 145 4,100  Level Cleveland Center
Fri 05:00:30 PM 43.0814 -77.3256 272° West 127 146 4,100  Level Cleveland Center
Fri 05:01:30 PM 43.0825 -77.3708 272° West 127 146 4,100 50 Level Cleveland Center
Fri 05:02:31 PM 43.0839 -77.4222 272° West 125 144 4,200  Climbing Cleveland Center
Fri 05:03:38 PM 43.0897 -77.4758 278° West 127 146 4,100 -50 Descending Cleveland Center
Fri 05:04:32 PM 43.0908 -77.5214 272° West 129 148 4,100  Level Cleveland Center
Fri 05:05:21 PM 43.0958 -77.5581 281° West 129 148 4,100  Level Cleveland Center
Fri 05:06:22 PM 43.0950 -77.6064 269° West 133 153 4,100  Level Cleveland Center
Fri 05:07:41 PM 43.1031 -77.6714 280° West 134 154 4,100  Level Cleveland Center
Fri 05:08:42 PM 43.1064 -77.7225 275° West 133 153 4,100  Level Cleveland Center
Fri 05:09:48 PM 43.1056 -77.7794 269° West 129 148 4,100  Level Cleveland Center
Fri 05:11:44 PM 43.1167 -77.8667 280° West 130 150 4,100  Level Buffalo TRACON
Fri 05:12:44 PM 43.1167 -77.9167 270° West 130 150 4,100  Level Buffalo TRACON
Fri 05:13:44 PM 43.1000 -77.9667 245° Southwest 131 151 4,100  Level Buffalo TRACON
Fri 05:14:44 PM 43.1000 -78.0167 270° West 131 151 4,100  Level Buffalo TRACON
Fri 05:15:44 PM 43.1000 -78.0667 270° West 134 154 4,100  Level Buffalo TRACON
Fri 05:16:44 PM 43.1167 -78.1167 295° West 135 155 4,100  Level Buffalo TRACON
Fri 05:17:44 PM 43.1333 -78.1667 295° West 128 147 4,100  Level Buffalo TRACON
Fri 05:18:50 PM 43.1333 -78.2167 270° West 128 147 4,100  Level Buffalo TRACON
Fri 05:19:50 PM 43.1500 -78.2667 295° West 130 150 4,100  Level Buffalo TRACON
Fri 05:20:51 PM 43.1500 -78.3167 270° West 129 148 4,100  Level Buffalo TRACON
Fri 05:21:50 PM 43.1500 -78.3667 270° West 128 147 4,100  Level Buffalo TRACON
Fri 05:22:44 PM 43.1667 -78.4000 304° West 128 147 4,100  Level Buffalo TRACON
Fri 05:23:44 PM 43.1667 -78.4500 270° West 129 148 4,100  Level Buffalo TRACON
Fri 05:24:50 PM 43.1833 -78.5000 295° West 131 151 4,100 -333 Level Buffalo TRACON
Fri 05:25:50 PM 43.1833 -78.5500 270° West 139 160 3,400 -650 Descending Buffalo TRACON
Fri 05:26:50 PM 43.1833 -78.6167 270° West 150 173 2,800 -550 Descending Buffalo TRACON
Fri 05:27:50 PM 43.1833 -78.6667 270° West 141 162 2,300 -198 Descending Buffalo TRACON
Fri 05:28:51 PM 43.1667 -78.7000 236° Southwest 125 144 2,400 99 Climbing Buffalo TRACON
Fri 05:29:51 PM 43.1333 -78.7500 228° Southwest 127 146 2,500 50 Climbing Buffalo TRACON
Fri 05:30:51 PM 43.1333 -78.8000 270° West 131 151 2,500 -300 Level Buffalo TRACON
Fri 05:31:51 PM 43.1500 -78.8333 304° West 116 133 1,900 -450 Descending Buffalo TRACON
Fri 05:32:51 PM 43.1500 -78.8833 270° West 95 109 1,600 -400 Descending Buffalo TRACON
Fri 05:33:51 PM 43.1333 -78.9000 216° Southwest 99 114 1,100 -500 Descending Buffalo TRACON
Fri 05:35:00 PM 43.1000 -78.9333 270° West  Level FlightAware Approximate
Fri 05:42:00 PM 43.1076 -78.9458 270° West  Level Estimated

Login

Don't have an account? Register now (free) for customized features, flight alerts, and more!